Time;durP1;ratioP1;P1;durP2;ratioP2;P2;SDS_P1;SDS_P2;PMS_P1;PMS_P2;Temp;Humidity;BMP_temperature;BMP_pressure;BME280_temperature;BME280_humidity;BME280_pressure;Samples;Min_cycle;Max_cycle;Signal;HPM_P1;HPM_P2
2023/10/03 07:26:56;;;;;;;17.23;13.27;;;;;;;14.71;100.00;99698.91;5554421;23;20259;-86
2023/10/03 07:29:26;;;;;;;14.63;11.60;;;;;;;14.74;100.00;99686.81;4937080;29;20631;-87
2023/10/03 07:31:58;;;;;;;17.03;12.30;;;;;;;14.80;100.00;99694.72;4925197;29;20208;-88
2023/10/03 07:34:26;;;;;;;15.10;12.17;;;;;;;14.91;100.00;99690.31;4907283;29;20213;-87
2023/10/03 07:36:57;;;;;;;15.50;12.30;;;;;;;14.96;100.00;99699.31;4911309;29;20305;-89
2023/10/03 07:39:26;;;;;;;15.07;12.10;;;;;;;15.04;100.00;99699.94;4929506;29;20213;-88
2023/10/03 07:41:57;;;;;;;15.17;11.90;;;;;;;15.13;100.00;99699.28;4933314;29;20662;-88
2023/10/03 07:44:26;;;;;;;16.83;12.10;;;;;;;15.25;100.00;99701.91;4949265;29;20221;-90
2023/10/03 07:46:55;;;;;;;14.73;11.83;;;;;;;15.29;100.00;99692.25;4922630;29;20269;-88
2023/10/03 07:49:27;;;;;;;15.97;11.90;;;;;;;15.38;100.00;99686.16;4909014;29;20215;-89
2023/10/03 07:52:00;;;;;;;14.17;11.90;;;;;;;15.50;100.00;99690.63;4915270;29;20201;-88
2023/10/03 07:54:37;;;;;;;14.87;11.33;;;;;;;15.66;100.00;99687.09;4919052;29;20229;-89
2023/10/03 07:57:09;;;;;;;14.57;11.27;;;;;;;15.78;100.00;99688.59;4894997;29;20206;-88
2023/10/03 07:59:38;;;;;;;16.20;12.13;;;;;;;15.89;100.00;99696.81;4918590;29;20671;-88
2023/10/03 08:02:10;;;;;;;13.37;10.93;;;;;;;15.99;100.00;99697.75;4914114;29;20217;-88
2023/10/03 08:05:00;;;;;;;17.57;11.53;;;;;;;16.08;100.00;99690.84;4908814;29;20225;-88
2023/10/03 08:07:33;;;;;;;15.50;11.63;;;;;;;16.17;100.00;99693.88;4911426;29;20228;-88
2023/10/03 08:10:03;;;;;;;15.80;10.67;;;;;;;16.26;100.00;99695.06;4912988;29;20674;-88
2023/10/03 08:12:32;;;;;;;13.87;11.00;;;;;;;16.34;100.00;99691.06;4889133;29;20222;-88
2023/10/03 08:15:16;;;;;;;15.93;10.60;;;;;;;16.39;100.00;99686.53;4911700;29;20212;-88
2023/10/03 08:17:48;;;;;;;15.97;10.90;;;;;;;16.54;100.00;99685.88;4914378;29;20258;-88
2023/10/03 08:20:25;;;;;;;14.87;10.83;;;;;;;16.70;100.00;99687.69;4908717;29;20213;-88
2023/10/03 08:23:03;;;;;;;15.83;11.07;;;;;;;16.79;100.00;99683.41;4904722;29;20212;-89
2023/10/03 08:25:34;;;;;;;15.63;10.00;;;;;;;16.97;100.00;99683.00;4893521;29;20256;-78
2023/10/03 08:28:09;;;;;;;13.90;10.20;;;;;;;17.18;100.00;99687.47;4934223;29;20237;-77
2023/10/03 08:30:42;;;;;;;12.43;9.97;;;;;;;17.34;100.00;99680.28;4951262;29;20231;-78
2023/10/03 08:33:16;;;;;;;16.50;10.00;;;;;;;17.56;100.00;99685.53;4946485;29;20234;-77
2023/10/03 08:35:52;;;;;;;12.77;9.27;;;;;;;17.68;100.00;99686.16;4942114;29;20203;-77
2023/10/03 08:38:27;;;;;;;13.23;9.17;;;;;;;17.84;100.00;99684.31;4941985;29;20197;-78
2023/10/03 08:41:03;;;;;;;12.83;9.23;;;;;;;17.98;100.00;99674.59;4946235;29;20258;-78
2023/10/03 08:43:37;;;;;;;13.10;9.57;;;;;;;18.12;100.00;99680.34;4951041;29;20193;-78
2023/10/03 08:46:10;;;;;;;14.90;9.80;;;;;;;18.29;100.00;99683.66;4921515;29;20250;-77
2023/10/03 08:48:43;;;;;;;12.80;9.90;;;;;;;18.44;100.00;99678.22;4921803;29;20202;-77
2023/10/03 08:51:17;;;;;;;14.83;9.43;;;;;;;18.39;100.00;99687.16;4937449;29;20195;-77
2023/10/03 08:53:59;;;;;;;11.97;9.30;;;;;;;18.43;100.00;99685.53;4928200;29;20194;-77
2023/10/03 08:56:35;;;;;;;14.80;9.23;;;;;;;18.64;100.00;99691.03;4920350;29;20230;-78
2023/10/03 08:59:09;;;;;;;10.27;9.00;;;;;;;18.71;100.00;99686.94;4922305;29;20297;-77
2023/10/03 09:01:39;;;;;;;12.70;9.00;;;;;;;18.80;100.00;99690.75;4916919;29;20270;-77
2023/10/03 09:04:15;;;;;;;12.97;9.50;;;;;;;18.89;100.00;99680.19;4944808;29;20227;-77
2023/10/03 09:06:46;;;;;;;14.43;9.70;;;;;;;19.01;100.00;99679.88;4924525;29;20208;-77
2023/10/03 09:09:14;;;;;;;11.57;8.80;;;;;;;19.09;100.00;99671.19;4949047;29;20698;-76
2023/10/03 09:11:51;;;;;;;13.53;9.30;;;;;;;19.25;100.00;99675.50;4940289;29;20200;-77
2023/10/03 09:14:22;;;;;;;11.80;8.70;;;;;;;19.33;100.00;99669.50;4944728;29;20248;-77
2023/10/03 09:16:52;;;;;;;14.43;10.07;;;;;;;19.44;100.00;99664.88;4940091;29;20245;-79
2023/10/03 09:19:41;;;;;;;12.60;9.47;;;;;;;19.51;100.00;99673.53;4945227;29;20701;-78
2023/10/03 09:22:30;;;;;;;13.40;9.30;;;;;;;19.61;100.00;99668.09;4926469;29;20324;-77
2023/10/03 09:25:01;;;;;;;13.13;8.87;;;;;;;19.67;100.00;99666.97;4951639;29;20250;-76
2023/10/03 09:27:30;;;;;;;13.83;9.53;;;;;;;19.75;100.00;99660.97;4952625;29;20258;-78
2023/10/03 09:30:10;;;;;;;12.30;8.83;;;;;;;19.88;100.00;99654.91;4956248;29;20204;-77
2023/10/03 09:32:41;;;;;;;13.00;8.83;;;;;;;19.94;100.00;99652.97;4948907;29;20223;-77
2023/10/03 09:35:13;;;;;;;12.43;8.80;;;;;;;20.08;100.00;99654.00;4933518;29;20282;-77
2023/10/03 09:37:48;;;;;;;12.20;8.87;;;;;;;20.18;100.00;99648.50;4951620;29;20208;-77
2023/10/03 09:40:21;;;;;;;14.00;9.20;;;;;;;20.26;100.00;99647.88;4927709;29;20232;-77
2023/10/03 09:42:51;;;;;;;12.27;8.87;;;;;;;20.41;100.00;99650.53;4943704;29;20285;-77
2023/10/03 09:45:24;;;;;;;12.70;8.68;;;;;;;20.53;100.00;99656.41;4936506;29;20750;-76
2023/10/03 09:47:58;;;;;;;12.25;8.85;;;;;;;20.60;100.00;99651.47;4936871;29;20674;-77
2023/10/03 09:50:35;;;;;;;13.43;9.33;;;;;;;20.69;100.00;99646.22;4935626;29;20270;-78
2023/10/03 09:53:16;;;;;;;12.30;8.80;;;;;;;20.81;100.00;99648.59;4945015;29;20205;-77
2023/10/03 09:55:49;;;;;;;12.30;9.15;;;;;;;20.88;100.00;99647.16;4944505;29;20248;-77
2023/10/03 09:58:24;;;;;;;12.02;8.43;;;;;;;21.04;100.00;99642.38;4924101;29;20230;-77
2023/10/03 10:00:53;;;;;;;10.77;8.98;;;;;;;21.20;100.00;99638.41;4928921;29;20209;-77
2023/10/03 10:03:28;;;;;;;13.60;9.07;;;;;;;21.37;100.00;99643.44;4936254;29;20213;-76
2023/10/03 10:06:12;;;;;;;10.52;8.90;;;;;;;21.47;100.00;99638.66;4922217;29;20277;-77
2023/10/03 10:08:47;;;;;;;11.85;9.10;;;;;;;21.55;100.00;99637.22;4938262;29;20197;-77
2023/10/03 10:11:27;;;;;;;12.25;8.65;;;;;;;21.66;100.00;99635.16;4922026;29;20205;-76
2023/10/03 10:14:09;;;;;;;13.25;9.25;;;;;;;21.72;100.00;99634.81;4923854;29;20281;-76
2023/10/03 10:17:10;;;;;;;13.65;9.75;;;;;;;21.81;100.00;99626.78;4955309;29;20202;-77
2023/10/03 10:20:10;;;;;;;13.02;9.45;;;;;;;21.98;100.00;99629.06;4937262;29;20237;-78
2023/10/03 10:23:12;;;;;;;12.77;9.05;;;;;;;22.14;100.00;99624.97;4944144;29;20680;-76
2023/10/03 10:25:49;;;;;;;12.85;9.25;;;;;;;22.30;100.00;99626.38;4937408;29;20240;-77
2023/10/03 10:28:22;;;;;;;12.43;9.48;;;;;;;22.37;100.00;99624.06;4945942;29;20197;-77
2023/10/03 10:31:15;;;;;;;13.88;9.70;;;;;;;22.52;100.00;99629.31;4941645;29;20224;-77
2023/10/03 10:33:45;;;;;;;13.48;9.27;;;;;;;22.69;100.00;99626.81;4950542;29;20238;-78
2023/10/03 10:36:13;;;;;;;14.50;9.68;;;;;;;22.82;100.00;99620.59;4945291;29;20218;-76
2023/10/03 10:38:52;;;;;;;13.07;9.88;;;;;;;22.91;100.00;99614.47;4921818;29;20212;-77
2023/10/03 10:41:27;;;;;;;14.00;9.43;;;;;;;23.00;100.00;99615.41;4935940;29;20200;-76
2023/10/03 10:44:27;;;;;;;15.35;9.30;;;;;;;23.12;100.00;99604.78;4934846;29;20206;-77
2023/10/03 10:47:05;;;;;;;13.07;9.70;;;;;;;23.23;100.00;99596.09;4916436;29;20237;-77
2023/10/03 10:49:34;;;;;;;13.43;9.32;;;;;;;23.29;100.00;99599.50;4940832;29;20206;-77
2023/10/03 10:52:02;;;;;;;13.80;9.20;;;;;;;23.39;100.00;99593.03;4943936;29;20204;-76
2023/10/03 10:54:31;;;;;;;12.63;9.40;;;;;;;23.42;100.00;99584.22;4938737;29;20324;-77
2023/10/03 10:57:01;;;;;;;14.02;9.25;;;;;;;23.54;100.00;99587.28;4946884;29;20192;-76
2023/10/03 10:59:35;;;;;;;14.65;9.68;;;;;;;23.68;100.00;99579.88;4952062;29;20224;-77
2023/10/03 11:02:22;;;;;;;12.73;9.13;;;;;;;23.85;100.00;99584.69;4919351;29;20232;-77
2023/10/03 11:04:58;;;;;;;12.27;9.50;;;;;;;23.90;100.00;99577.16;4928244;29;20315;-79
2023/10/03 11:07:31;;;;;;;13.10;9.90;;;;;;;24.00;100.00;99570.66;4954385;29;20287;-77
2023/10/03 11:10:07;;;;;;;10.75;9.32;;;;;;;24.09;100.00;99563.31;4945616;29;20215;-77
2023/10/03 11:13:11;;;;;;;11.38;9.40;;;;;;;24.23;100.00;99561.38;4920711;29;20200;-77
2023/10/03 11:15:57;;;;;;;13.32;9.50;;;;;;;24.39;100.00;99559.06;4934832;29;20251;-77
2023/10/03 11:18:30;;;;;;;12.93;9.55;;;;;;;24.47;100.00;99567.34;4940403;29;20211;-77
2023/10/03 11:21:08;;;;;;;12.48;9.60;;;;;;;24.61;100.00;99561.78;4935363;29;20298;-77
2023/10/03 11:23:37;;;;;;;12.23;9.93;;;;;;;24.62;100.00;99551.63;4939563;29;20264;-77
2023/10/03 11:26:05;;;;;;;12.77;8.90;;;;;;;24.68;100.00;99545.72;4942928;29;20228;-78
2023/10/03 11:28:48;;;;;;;11.82;9.35;;;;;;;24.98;100.00;99555.06;4938932;29;20220;-77
2023/10/03 11:31:19;;;;;;;10.55;9.15;;;;;;;25.04;100.00;99547.50;4932367;29;20563;-77
2023/10/03 11:33:59;;;;;;;11.82;8.80;;;;;;;25.14;100.00;99539.81;4937141;29;20469;-77
2023/10/03 11:36:41;;;;;;;12.35;9.13;;;;;;;25.11;100.00;99534.16;4939722;29;20209;-78
2023/10/03 11:39:23;;;;;;;10.02;8.57;;;;;;;25.02;100.00;99531.38;4937171;29;20264;-77
2023/10/03 11:41:56;;;;;;;11.23;8.82;;;;;;;25.16;100.00;99523.84;4921323;29;20204;-77
2023/10/03 11:44:27;;;;;;;11.60;8.98;;;;;;;25.29;100.00;99516.66;4936606;29;20815;-77
2023/10/03 11:47:01;;;;;;;12.52;9.18;;;;;;;25.28;100.00;99515.03;4938039;29;20701;-77
2023/10/03 11:49:29;;;;;;;11.90;9.25;;;;;;;25.56;100.00;99519.13;4941955;29;20194;-78
2023/10/03 11:52:00;;;;;;;10.65;9.20;;;;;;;25.60;100.00;99514.63;4941169;29;20209;-77
2023/10/03 11:54:27;;;;;;;11.00;8.98;;;;;;;25.64;100.00;99510.09;4940311;29;20214;-80
2023/10/03 11:56:57;;;;;;;11.63;9.45;;;;;;;25.71;100.00;99515.13;4942509;29;20201;-77
2023/10/03 11:59:25;;;;;;;11.23;9.05;;;;;;;25.77;100.00;99509.13;4944498;29;20276;-77
2023/10/03 12:01:59;;;;;;;11.65;8.63;;;;;;;25.86;100.00;99506.38;4942983;29;20221;-77
2023/10/03 12:04:29;;;;;;;10.50;8.80;;;;;;;25.89;100.00;99505.75;4944902;29;20217;-77
2023/10/03 12:07:18;;;;;;;10.85;8.93;;;;;;;26.01;100.00;99505.91;4947971;29;20201;-76
2023/10/03 12:09:46;;;;;;;11.18;9.75;;;;;;;26.00;100.00;99504.28;4938342;29;20204;-76
2023/10/03 12:12:13;;;;;;;10.07;8.60;;;;;;;26.04;100.00;99497.00;4939175;29;20713;-77
2023/10/03 12:14:45;;;;;;;11.57;9.68;;;;;;;26.12;100.00;99493.47;4939312;29;20681;-76
2023/10/03 12:17:15;;;;;;;10.63;8.45;;;;;;;26.19;100.00;99492.94;4940984;29;20280;-77
2023/10/03 12:19:53;;;;;;;9.35;8.15;;;;;;;26.22;100.00;99484.88;4940760;29;20198;-80
2023/10/03 12:22:22;;;;;;;10.13;8.98;;;;;;;26.25;100.00;99491.69;4934224;29;20215;-78
2023/10/03 12:24:51;;;;;;;10.32;7.95;;;;;;;26.32;100.00;99482.97;4940611;29;20221;-78
2023/10/03 12:27:20;;;;;;;12.95;9.23;;;;;;;26.44;100.00;99491.31;4937756;29;20261;-77
2023/10/03 12:29:48;;;;;;;11.55;8.32;;;;;;;26.50;100.00;99479.81;4945885;29;20192;-77
2023/10/03 12:32:18;;;;;;;10.20;8.10;;;;;;;26.54;100.00;99486.28;4933929;29;20197;-77
2023/10/03 12:34:49;;;;;;;9.60;8.25;;;;;;;26.58;100.00;99479.00;4933175;29;20209;-77
2023/10/03 12:37:19;;;;;;;10.27;8.13;;;;;;;26.64;100.00;99474.91;4933991;29;20215;-77
2023/10/03 12:40:01;;;;;;;10.30;8.05;;;;;;;26.72;100.00;99476.84;4948446;29;20206;-77
2023/10/03 12:42:32;;;;;;;11.23;9.07;;;;;;;26.63;100.00;99469.75;4945693;28;20275;-77
2023/10/03 12:45:21;;;;;;;12.07;8.73;;;;;;;26.73;100.00;99469.41;4944253;29;20232;-77
2023/10/03 12:47:56;;;;;;;11.98;9.50;;;;;;;26.78;100.00;99462.91;4936880;29;20198;-77
2023/10/03 12:50:25;;;;;;;10.00;9.00;;;;;;;26.74;100.00;99462.75;4938866;29;20194;-78
2023/10/03 12:52:56;;;;;;;10.02;8.35;;;;;;;26.76;100.00;99457.75;4938796;29;20196;-79
2023/10/03 12:55:28;;;;;;;12.27;9.10;;;;;;;26.83;100.00;99448.97;4938848;29;20194;-78
2023/10/03 12:57:58;;;;;;;11.60;8.77;;;;;;;26.84;100.00;99442.31;4939072;29;20193;-77
2023/10/03 13:00:26;;;;;;;12.13;8.88;;;;;;;26.91;100.00;99450.91;4939311;29;20205;-77
2023/10/03 13:02:56;;;;;;;10.40;8.40;;;;;;;26.94;100.00;99445.53;4940174;29;20297;-79
2023/10/03 13:05:27;;;;;;;12.90;9.02;;;;;;;26.85;100.00;99442.00;4937231;29;20225;-77
2023/10/03 13:08:14;;;;;;;12.45;8.90;;;;;;;26.96;100.00;99432.28;4937718;29;20206;-78
2023/10/03 13:10:47;;;;;;;17.88;9.45;;;;;;;27.01;100.00;99440.34;4943240;29;20228;-77
2023/10/03 13:13:19;;;;;;;12.23;8.98;;;;;;;26.89;100.00;99436.69;4945198;29;20208;-78
2023/10/03 13:15:49;;;;;;;13.00;8.95;;;;;;;26.97;100.00;99442.13;4937254;29;20274;-78
2023/10/03 13:18:24;;;;;;;14.05;8.27;;;;;;;26.93;100.00;99438.44;4921254;29;20198;-77
2023/10/03 13:20:53;;;;;;;11.63;8.60;;;;;;;27.00;100.00;99426.91;4937121;29;20205;-77
2023/10/03 13:23:20;;;;;;;9.75;8.55;;;;;;;26.99;100.00;99433.56;4941899;29;20209;-77
2023/10/03 13:25:50;;;;;;;11.43;8.60;;;;;;;27.01;100.00;99429.34;4936517;29;20225;-77
2023/10/03 13:28:20;;;;;;;13.07;8.80;;;;;;;26.99;100.00;99428.06;4936849;29;20197;-77
2023/10/03 13:30:47;;;;;;;12.45;8.43;;;;;;;27.03;100.00;99423.50;4936518;29;20265;-77
2023/10/03 13:33:15;;;;;;;12.50;8.52;;;;;;;27.10;100.00;99427.34;4936768;29;20200;-77
2023/10/03 13:35:44;;;;;;;10.68;9.25;;;;;;;27.23;100.00;99430.97;4936272;29;20289;-77
2023/10/03 13:38:15;;;;;;;13.75;9.05;;;;;;;27.21;100.00;99418.69;4917189;29;20679;-78
2023/10/03 13:40:45;;;;;;;12.18;8.90;;;;;;;27.25;100.00;99425.94;4936360;29;20194;-77
2023/10/03 13:43:17;;;;;;;12.95;8.90;;;;;;;27.29;100.00;99417.84;4936571;29;20233;-77
2023/10/03 13:45:48;;;;;;;14.90;9.75;;;;;;;27.29;100.00;99404.88;4936282;29;20225;-78
2023/10/03 13:48:16;;;;;;;14.43;9.23;;;;;;;27.26;100.00;99404.72;4940457;29;20206;-78
2023/10/03 13:50:51;;;;;;;12.70;9.30;;;;;;;27.28;100.00;99406.03;4936421;29;20194;-78
2023/10/03 13:53:22;;;;;;;10.77;8.77;;;;;;;27.25;100.00;99400.41;4935810;29;20206;-78
2023/10/03 13:55:52;;;;;;;9.93;8.73;;;;;;;27.37;100.00;99394.94;4936396;29;20277;-78
2023/10/03 13:58:23;;;;;;;11.10;9.20;;;;;;;27.31;100.00;99391.59;4941441;29;20193;-78
2023/10/03 14:00:50;;;;;;;10.48;9.00;;;;;;;27.26;100.00;99393.72;4937599;29;20194;-79
2023/10/03 14:03:19;;;;;;;12.38;9.00;;;;;;;27.28;100.00;99394.22;4936511;29;20316;-78
2023/10/03 14:05:47;;;;;;;15.93;9.73;;;;;;;27.24;100.00;99390.53;4952738;29;20217;-79
2023/10/03 14:08:19;;;;;;;9.80;8.80;;;;;;;27.23;100.00;99392.47;4950179;29;20193;-78
2023/10/03 14:10:46;;;;;;;12.07;8.75;;;;;;;27.20;100.00;99389.59;4949470;29;20290;-78
2023/10/03 14:13:14;;;;;;;12.35;8.95;;;;;;;27.06;100.00;99390.63;4955398;29;20208;-77
2023/10/03 14:15:45;;;;;;;16.13;10.10;;;;;;;26.91;100.00;99394.00;4954399;29;20197;-78
2023/10/03 14:18:15;;;;;;;16.20;8.98;;;;;;;26.67;100.00;99400.06;4924338;29;20232;-77
2023/10/03 14:20:49;;;;;;;21.20;10.20;;;;;;;26.65;100.00;99396.03;4948745;29;20264;-78
2023/10/03 14:23:21;;;;;;;12.10;9.38;;;;;;;26.54;100.00;99394.81;4941080;29;20205;-77
2023/10/03 14:25:51;;;;;;;22.08;10.85;;;;;;;26.44;100.00;99395.19;4943150;29;20312;-78
2023/10/03 14:28:18;;;;;;;19.77;9.70;;;;;;;26.37;100.00;99400.34;4939464;29;20230;-78
2023/10/03 14:30:53;;;;;;;18.02;10.02;;;;;;;26.24;100.00;99397.50;4939296;29;20229;-78
2023/10/03 14:33:26;;;;;;;18.48;9.98;;;;;;;26.18;100.00;99393.28;4938800;29;20201;-77
2023/10/03 14:35:59;;;;;;;12.00;9.05;;;;;;;26.08;100.00;99393.63;4942958;29;20197;-77
2023/10/03 14:38:27;;;;;;;12.63;8.98;;;;;;;26.14;100.00;99383.28;4930311;29;20201;-77
2023/10/03 14:40:58;;;;;;;10.52;9.05;;;;;;;26.14;100.00;99383.28;4947941;29;20275;-78
2023/10/03 14:43:32;;;;;;;13.13;9.15;;;;;;;26.15;100.00;99382.16;4953124;29;20197;-78
2023/10/03 14:46:02;;;;;;;13.73;10.27;;;;;;;26.18;100.00;99381.50;4947659;29;20768;-78
2023/10/03 14:48:33;;;;;;;11.65;9.40;;;;;;;26.19;100.00;99385.88;4943525;29;20242;-79
2023/10/03 14:51:02;;;;;;;15.55;9.05;;;;;;;26.31;100.00;99390.72;4954494;29;20204;-78
2023/10/03 14:53:34;;;;;;;12.63;9.23;;;;;;;26.34;100.00;99390.03;4949076;29;20202;-77
2023/10/03 14:56:06;;;;;;;10.70;9.23;;;;;;;26.32;100.00;99392.34;4950488;29;20197;-77
2023/10/03 14:58:38;;;;;;;11.55;9.20;;;;;;;26.26;100.00;99383.47;4953178;29;20252;-77
2023/10/03 15:01:12;;;;;;;10.00;8.95;;;;;;;26.08;100.00;99382.66;4947590;29;20194;-78
2023/10/03 15:03:45;;;;;;;12.98;9.25;;;;;;;25.96;100.00;99385.28;4943367;28;20313;-79
2023/10/03 15:06:17;;;;;;;10.73;9.23;;;;;;;25.79;100.00;99385.34;4952606;29;20628;-78
2023/10/03 15:08:48;;;;;;;11.95;9.43;;;;;;;25.59;100.00;99386.00;4944850;29;20215;-78
2023/10/03 15:11:17;;;;;;;10.15;9.13;;;;;;;25.53;100.00;99384.50;4944075;29;20721;-77
2023/10/03 15:13:48;;;;;;;11.35;8.90;;;;;;;25.44;100.00;99385.34;4945368;29;20198;-77
2023/10/03 15:16:19;;;;;;;12.07;9.52;;;;;;;25.41;100.00;99385.19;4943067;29;20225;-77
2023/10/03 15:18:53;;;;;;;12.20;9.07;;;;;;;25.36;100.00;99380.66;4940379;29;20232;-79
2023/10/03 15:21:22;;;;;;;12.30;9.10;;;;;;;25.32;100.00;99376.16;4937206;29;20216;-78
2023/10/03 15:23:51;;;;;;;12.10;8.93;;;;;;;25.29;100.00;99376.81;4939429;29;20687;-77
2023/10/03 15:26:24;;;;;;;11.65;9.30;;;;;;;25.17;100.00;99382.09;4919305;29;20336;-77
2023/10/03 15:28:53;;;;;;;10.68;9.45;;;;;;;25.11;100.00;99378.72;4942637;29;20209;-79
2023/10/03 15:31:25;;;;;;;12.05;9.60;;;;;;;25.03;100.00;99376.78;4942774;29;20271;-77
2023/10/03 15:33:56;;;;;;;13.25;9.60;;;;;;;24.92;100.00;99384.50;4944715;29;20196;-78
2023/10/03 15:36:24;;;;;;;10.77;9.43;;;;;;;24.89;100.00;99385.13;4944093;29;20213;-78
2023/10/03 15:38:54;;;;;;;11.68;9.40;;;;;;;24.77;100.00;99376.72;4922188;29;20204;-78
2023/10/03 15:41:28;;;;;;;11.98;9.75;;;;;;;24.67;100.00;99374.28;4933085;29;20273;-77
2023/10/03 15:44:01;;;;;;;12.15;9.27;;;;;;;24.59;100.00;99375.03;4942181;29;20209;-77
2023/10/03 15:46:30;;;;;;;11.38;9.40;;;;;;;24.55;100.00;99379.53;4953377;29;20307;-77
2023/10/03 15:49:00;;;;;;;11.68;9.68;;;;;;;24.45;100.00;99375.16;4953192;29;20678;-78
2023/10/03 15:51:28;;;;;;;10.18;9.05;;;;;;;24.34;100.00;99382.06;4946610;29;20733;-77
2023/10/03 15:53:56;;;;;;;10.90;9.63;;;;;;;24.27;100.00;99378.94;4947187;29;20202;-77
2023/10/03 15:56:28;;;;;;;11.82;9.77;;;;;;;24.15;100.00;99378.72;4945106;29;20213;-77
2023/10/03 15:58:57;;;;;;;11.98;9.48;;;;;;;24.09;100.00;99385.44;4945763;29;20250;-77
2023/10/03 16:01:34;;;;;;;11.50;9.35;;;;;;;23.96;100.00;99381.69;4946158;29;20214;-77
2023/10/03 16:04:08;;;;;;;11.55;9.63;;;;;;;23.81;100.00;99376.59;4953283;29;20228;-77
2023/10/03 16:06:38;;;;;;;12.32;9.88;;;;;;;23.73;100.00;99382.81;4952998;29;20279;-77
2023/10/03 16:09:12;;;;;;;11.52;10.13;;;;;;;23.67;100.00;99384.06;4951502;29;20204;-77
2023/10/03 16:11:48;;;;;;;11.45;9.25;;;;;;;23.55;100.00;99386.56;4943176;29;20209;-77
2023/10/03 16:14:22;;;;;;;12.65;9.70;;;;;;;23.43;100.00;99383.53;4949416;29;20688;-77
2023/10/03 16:16:53;;;;;;;11.80;9.90;;;;;;;23.35;100.00;99387.00;4955426;28;20196;-79
2023/10/03 16:19:23;;;;;;;13.82;10.55;;;;;;;23.18;100.00;99388.50;4949307;29;20266;-77
2023/10/03 16:21:54;;;;;;;12.35;10.30;;;;;;;23.11;100.00;99381.81;4953294;29;20672;-77
2023/10/03 16:24:29;;;;;;;12.35;9.90;;;;;;;22.98;100.00;99377.19;4951802;29;20202;-77
2023/10/03 16:26:58;;;;;;;29.08;26.02;;;;;;;22.83;100.00;99381.06;4942124;29;20300;-78
2023/10/03 16:29:31;;;;;;;36.15;32.67;;;;;;;22.71;100.00;99378.06;4936974;29;20211;-77
2023/10/03 16:31:58;;;;;;;30.48;27.52;;;;;;;22.62;100.00;99382.59;4949119;29;20209;-77
2023/10/03 16:34:36;;;;;;;35.42;32.13;;;;;;;22.46;100.00;99382.06;4939111;29;20651;-77
2023/10/03 16:37:06;;;;;;;33.88;30.67;;;;;;;22.37;100.00;99392.88;4950600;29;20211;-77
2023/10/03 16:39:38;;;;;;;44.67;40.85;;;;;;;22.24;100.00;99390.97;4940444;29;20204;-77
2023/10/03 16:42:17;;;;;;;17.13;15.32;;;;;;;22.18;100.00;99394.88;4938129;29;20213;-77
2023/10/03 16:44:51;;;;;;;21.88;19.15;;;;;;;22.10;100.00;99390.13;4945637;29;20586;-80
2023/10/03 16:47:19;;;;;;;46.63;41.45;;;;;;;22.00;100.00;99398.50;4951410;29;20239;-77
2023/10/03 16:49:52;;;;;;;27.02;24.15;;;;;;;21.90;100.00;99404.09;4956749;29;20236;-77
2023/10/03 16:52:20;;;;;;;21.95;19.27;;;;;;;21.76;100.00;99397.78;4953965;29;20254;-77
2023/10/03 16:54:48;;;;;;;18.52;15.00;;;;;;;21.67;100.00;99397.66;4951684;29;20224;-78
2023/10/03 16:57:20;;;;;;;18.63;14.32;;;;;;;21.56;100.00;99400.88;4956510;29;20213;-78
2023/10/03 16:59:47;;;;;;;22.17;14.80;;;;;;;21.45;100.00;99402.94;4956433;29;20204;-78
2023/10/03 17:02:22;;;;;;;18.42;12.48;;;;;;;21.35;100.00;99406.63;4949089;29;20224;-77
2023/10/03 17:04:52;;;;;;;17.88;12.27;;;;;;;21.30;100.00;99401.25;4949750;29;20673;-77
2023/10/03 17:07:23;;;;;;;14.80;11.52;;;;;;;21.16;100.00;99403.09;4947357;29;20229;-77
2023/10/03 17:09:59;;;;;;;15.18;11.75;;;;;;;21.07;100.00;99404.81;4946623;29;20198;-77
2023/10/03 17:12:28;;;;;;;21.33;11.13;;;;;;;20.98;100.00;99409.31;4951829;29;20193;-77
2023/10/03 17:15:01;;;;;;;17.27;11.23;;;;;;;20.91;100.00;99400.69;4953585;29;20216;-77
2023/10/03 17:17:29;;;;;;;13.27;10.45;;;;;;;20.83;100.00;99401.34;4956189;29;20201;-79
2023/10/03 17:19:56;;;;;;;11.75;10.55;;;;;;;20.68;100.00;99405.06;4955315;29;20205;-77
2023/10/03 17:22:29;;;;;;;15.52;10.95;;;;;;;20.54;100.00;99398.69;4950542;29;20296;-77
2023/10/03 17:25:03;;;;;;;14.50;11.35;;;;;;;20.57;100.00;99390.78;4944440;29;20443;-77
2023/10/03 17:27:40;;;;;;;14.30;10.77;;;;;;;20.54;100.00;99385.09;4936642;29;20342;-87
2023/10/03 17:30:16;;;;;;;13.70;11.25;;;;;;;20.47;100.00;99393.63;4938631;29;20240;-87
2023/10/03 17:32:45;;;;;;;15.48;10.50;;;;;;;20.44;100.00;99394.19;4926917;29;20233;-87
2023/10/03 17:35:15;;;;;;;14.52;11.13;;;;;;;20.39;100.00;99394.22;4951568;29;20199;-87
2023/10/03 17:37:45;;;;;;;13.95;10.77;;;;;;;20.32;100.00;99392.97;4939223;29;20207;-87
2023/10/03 17:40:17;;;;;;;12.50;10.80;;;;;;;20.27;100.00;99396.53;4952481;29;20204;-87
2023/10/03 17:42:45;;;;;;;12.75;10.93;;;;;;;20.24;100.00;99397.13;4911435;29;20204;-87
2023/10/03 17:45:18;;;;;;;15.05;11.15;;;;;;;20.21;100.00;99397.66;4907045;29;20204;-88
2023/10/03 17:47:50;;;;;;;12.40;10.68;;;;;;;20.16;100.00;99405.88;4891396;29;20226;-87
2023/10/03 17:50:32;;;;;;;11.32;10.13;;;;;;;20.07;100.00;99396.72;4912751;29;20210;-87
2023/10/03 17:53:01;;;;;;;12.07;10.57;;;;;;;19.98;100.00;99393.81;4891448;29;20210;-87
2023/10/03 17:55:41;;;;;;;12.20;10.23;;;;;;;19.92;100.00;99396.91;4909248;29;20269;-87
2023/10/03 17:58:08;;;;;;;13.05;10.60;;;;;;;19.83;100.00;99399.38;4912156;29;20574;-87
2023/10/03 18:00:38;;;;;;;15.95;11.75;;;;;;;19.73;100.00;99400.31;4904388;29;20221;-88
2023/10/03 18:03:06;;;;;;;13.73;11.30;;;;;;;19.63;100.00;99405.84;4898105;29;20288;-87
2023/10/03 18:05:37;;;;;;;13.05;11.18;;;;;;;19.49;100.00;99404.84;4893421;29;20201;-88
2023/10/03 18:08:07;;;;;;;15.05;11.63;;;;;;;19.36;100.00;99406.25;4892786;29;20230;-88
2023/10/03 18:10:38;;;;;;;13.13;10.82;;;;;;;19.30;100.00;99412.03;4893502;29;20202;-87
2023/10/03 18:13:13;;;;;;;13.15;10.45;;;;;;;19.23;100.00;99417.75;4890904;29;20208;-88
2023/10/03 18:15:41;;;;;;;13.40;11.67;;;;;;;19.18;100.00;99417.78;4920293;29;20301;-87
2023/10/03 18:18:12;;;;;;;12.02;10.60;;;;;;;19.12;100.00;99410.78;4920561;29;20217;-88
2023/10/03 18:20:40;;;;;;;13.60;11.07;;;;;;;19.08;100.00;99408.91;4922379;29;20237;-88
2023/10/03 18:23:14;;;;;;;14.00;11.50;;;;;;;19.06;100.00;99411.06;4904345;29;20202;-87
2023/10/03 18:25:42;;;;;;;13.68;12.18;;;;;;;19.05;100.00;99415.69;4910232;29;20469;-88
2023/10/03 18:28:09;;;;;;;14.30;11.20;;;;;;;18.98;100.00;99406.25;4901697;29;20335;-88
2023/10/03 18:30:37;;;;;;;12.27;10.97;;;;;;;18.90;100.00;99407.63;4901971;29;20200;-88
2023/10/03 18:33:07;;;;;;;12.67;11.37;;;;;;;18.88;100.00;99407.09;4876870;29;20208;-88
2023/10/03 18:35:36;;;;;;;14.40;11.67;;;;;;;18.84;100.00;99416.91;4886801;29;20213;-88
2023/10/03 18:38:09;;;;;;;11.97;10.67;;;;;;;18.81;100.00;99420.97;4886913;29;20298;-88
2023/10/03 18:40:43;;;;;;;12.83;11.20;;;;;;;18.78;100.00;99423.44;4923528;29;20217;-89
2023/10/03 18:43:15;;;;;;;12.73;10.83;;;;;;;18.68;100.00;99426.19;4887886;29;20217;-88
2023/10/03 18:45:48;;;;;;;12.00;10.20;;;;;;;18.43;100.00;99430.56;4897120;29;20535;-91
2023/10/03 18:48:28;;;;;;;15.97;11.47;;;;;;;18.37;100.00;99422.72;4911621;29;20300;-92
2023/10/03 18:51:07;;;;;;;14.20;11.03;;;;;;;18.35;100.00;99419.47;4899129;29;20286;-93
2023/10/03 18:53:39;;;;;;;11.97;10.67;;;;;;;18.36;100.00;99426.53;4901604;29;20218;-92
2023/10/03 18:56:16;;;;;;;14.40;11.37;;;;;;;18.32;100.00;99430.88;4901651;29;20210;-92
2023/10/03 18:58:50;;;;;;;12.43;11.13;;;;;;;18.18;100.00;99451.50;4883316;29;20206;-92
2023/10/03 19:01:34;;;;;;;13.07;10.63;;;;;;;18.12;100.00;99458.00;4882727;29;20231;-92
2023/10/03 19:04:20;;;;;;;11.80;10.60;;;;;;;18.09;100.00;99461.28;4918653;29;20209;-92
2023/10/03 19:06:51;;;;;;;14.30;11.47;;;;;;;18.04;100.00;99471.03;4916366;29;20311;-92